Westpoint, Tennessee
Current Conditions -  °F | °C
As of 12:53 PM on Friday 24 Oct 2014 (Local Time) from KMSL Reporting Station
Clear Clear  
Wind Chill: 71°   Ceiling: Unl
Heat Index: 71°   Visibility: 10mi
Dew Point: 37°   Wind: 7mph
Humidity: 29%   Direction: 340°NNW
Pressure: 30.11"   Gusts: NA
Location:  35.13°N, 87.53°W
Report Text: KMSL 241753Z AUTO 34006KT 10SM CLR 22/03 A3011 RMK AO2 SLP193 T02170028 10217 20061 58011
Loading
Personal Weather Stations






























Interactive Weather Map
Tropical Storm Tracking
New forecast layout! Learn more

10-Day Weather Forecast

Advertisements
Track Severe Weather on mobile